Time;durP1;ratioP1;P1;durP2;ratioP2;P2;SDS_P1;SDS_P2;PMS_P1;PMS_P2;Temp;Humidity;BMP_temperature;BMP_pressure;BME280_temperature;BME280_humidity;BME280_pressure;Samples;Min_cycle;Max_cycle;Signal;HPM_P1;HPM_P2
2023/03/16 00:02:09;;;;;;;7.05;2.72;;;;;;;5.09;59.47;99753.00;4398424;32;20759;-95
2023/03/16 00:04:36;;;;;;;6.07;2.55;;;;;;;5.11;59.47;99764.16;4396468;32;20441;-94
2023/03/16 00:07:02;;;;;;;5.60;2.35;;;;;;;5.03;59.47;99769.41;4386433;32;20089;-94
2023/03/16 00:09:30;;;;;;;9.50;3.17;;;;;;;5.01;59.46;99770.28;4399321;32;20451;-94
2023/03/16 00:12:04;;;;;;;5.97;2.30;;;;;;;4.91;59.46;99769.50;4396912;32;20103;-94
2023/03/16 00:14:30;;;;;;;5.28;2.42;;;;;;;4.95;59.47;99776.34;4378055;32;20853;-93
2023/03/16 00:16:56;;;;;;;5.62;2.37;;;;;;;4.86;59.45;99773.84;4383854;32;20495;-94
2023/03/16 00:19:21;;;;;;;3.90;2.40;;;;;;;4.97;59.47;99776.31;4377129;32;20117;-95
2023/03/16 00:21:48;;;;;;;7.30;3.80;;;;;;;4.99;59.46;99782.34;4400502;32;20118;-93
2023/03/16 00:24:17;;;;;;;7.87;2.90;;;;;;;4.98;59.46;99778.91;4395642;32;20504;-92
2023/03/16 00:26:43;;;;;;;6.05;2.47;;;;;;;4.78;59.45;99778.22;4398713;32;20486;-93
2023/03/16 00:29:09;;;;;;;5.50;2.53;;;;;;;4.99;59.46;99782.34;4398584;32;20077;-92
2023/03/16 00:31:34;;;;;;;5.15;2.42;;;;;;;4.79;59.46;99785.94;4395098;32;20131;-94
2023/03/16 00:34:01;;;;;;;8.10;2.70;;;;;;;4.66;59.45;99784.31;4390721;32;20119;-91
2023/03/16 00:36:27;;;;;;;7.68;2.35;;;;;;;4.72;59.45;99796.31;4386013;32;20447;-95
2023/03/16 00:38:53;;;;;;;3.80;2.25;;;;;;;4.74;59.46;99792.00;4391115;32;20136;-93
2023/03/16 00:41:18;;;;;;;7.00;2.72;;;;;;;4.73;59.46;99796.31;4406586;32;20246;-94
2023/03/16 00:43:44;;;;;;;5.00;2.37;;;;;;;4.73;59.45;99785.13;4398823;32;20135;-94
2023/03/16 00:46:14;;;;;;;6.60;2.67;;;;;;;4.72;59.45;99778.25;4373197;32;20382;-94
2023/03/16 00:48:42;;;;;;;6.25;2.42;;;;;;;4.62;59.44;99780.91;4380451;32;20102;-94
2023/03/16 00:51:11;;;;;;;6.07;2.65;;;;;;;4.51;59.44;99784.44;4383071;32;20129;-94
2023/03/16 00:53:37;;;;;;;6.40;2.05;;;;;;;4.36;59.43;99784.53;4383904;32;20105;-92
2023/03/16 00:56:05;;;;;;;7.18;2.80;;;;;;;4.55;59.44;99786.13;4385675;32;20111;-95
2023/03/16 00:58:34;;;;;;;11.55;2.72;;;;;;;4.48;59.43;99789.59;4389406;32;20646;-94
2023/03/16 01:01:04;;;;;;;4.50;2.30;;;;;;;4.51;59.44;99790.47;4386413;32;20114;-94
2023/03/16 01:03:30;;;;;;;5.00;2.37;;;;;;;4.57;59.44;99792.12;4385947;32;20125;-95
2023/03/16 01:05:58;;;;;;;6.00;2.42;;;;;;;4.54;59.44;99787.84;4392357;32;20108;-95
2023/03/16 01:08:26;;;;;;;10.32;3.20;;;;;;;4.43;59.44;99794.78;4383027;32;20484;-93
2023/03/16 01:10:53;;;;;;;4.78;2.50;;;;;;;4.34;59.42;99797.44;4397863;32;20224;-94
2023/03/16 01:13:18;;;;;;;7.18;2.60;;;;;;;4.37;59.43;99802.56;4384064;32;20185;-94
2023/03/16 01:15:44;;;;;;;6.80;3.10;;;;;;;4.24;59.42;99800.91;4397434;32;20153;-94
2023/03/16 01:18:12;;;;;;;7.53;3.17;;;;;;;4.42;59.44;99800.81;4384393;32;20094;-95
2023/03/16 01:20:38;;;;;;;5.22;2.60;;;;;;;4.54;59.44;99799.88;4400379;32;20708;-94
2023/03/16 01:23:03;;;;;;;6.95;2.97;;;;;;;4.54;59.44;99805.91;4390137;32;20102;-94
2023/03/16 01:25:28;;;;;;;7.60;2.87;;;;;;;4.75;59.45;99809.19;4399813;32;20090;-94
2023/03/16 01:27:54;;;;;;;11.00;2.92;;;;;;;4.63;59.44;99802.41;4399377;32;20128;-94
2023/03/16 01:30:19;;;;;;;5.78;2.95;;;;;;;4.67;59.44;99798.91;4392715;32;20501;-94
2023/03/16 01:32:47;;;;;;;5.90;3.25;;;;;;;4.55;59.44;99811.91;4397206;32;20113;-93
2023/03/16 01:35:12;;;;;;;7.20;2.83;;;;;;;4.53;59.44;99809.34;4400198;32;20058;-94
2023/03/16 01:37:38;;;;;;;5.87;3.05;;;;;;;4.53;59.44;99813.66;4389409;32;20735;-92
2023/03/16 01:40:05;;;;;;;8.65;3.00;;;;;;;4.56;59.43;99811.91;4388957;32;20127;-91
2023/03/16 01:42:31;;;;;;;7.15;3.15;;;;;;;4.57;59.44;99813.59;4398992;32;20114;-92
2023/03/16 01:45:00;;;;;;;9.60;3.00;;;;;;;4.61;59.44;99810.13;4399209;32;20423;-96
2023/03/16 01:47:26;;;;;;;8.60;2.60;;;;;;;4.46;59.43;99815.38;4401445;32;20105;-95
2023/03/16 01:49:53;;;;;;;7.62;2.50;;;;;;;4.45;59.43;99816.25;4394707;32;20094;-95
2023/03/16 01:52:21;;;;;;;5.97;2.80;;;;;;;4.38;59.42;99809.44;4384598;32;20139;-95
2023/03/16 01:54:59;;;;;;;6.07;2.70;;;;;;;4.46;59.43;99817.09;4400520;32;20093;-95
2023/03/16 01:57:31;;;;;;;8.73;2.83;;;;;;;4.38;59.42;99819.75;4400810;32;20112;-95
2023/03/16 02:00:09;;;;;;;6.18;2.80;;;;;;;4.42;59.44;99821.44;4401452;32;20766;-95
2023/03/16 02:02:34;;;;;;;7.15;2.70;;;;;;;4.16;59.42;99818.16;4391308;32;20462;-95
2023/03/16 02:05:11;;;;;;;8.82;2.72;;;;;;;4.26;59.42;99831.00;4402845;32;20197;-95
2023/03/16 02:07:42;;;;;;;4.45;2.20;;;;;;;4.23;59.43;99832.69;4413623;32;20112;-95
2023/03/16 02:10:08;;;;;;;5.43;2.50;;;;;;;4.22;59.42;99842.16;4401450;32;20106;-92
2023/03/16 02:12:33;;;;;;;10.07;2.80;;;;;;;4.20;59.42;99840.44;4397042;32;20127;-93
2023/03/16 02:14:59;;;;;;;8.55;2.60;;;;;;;4.28;59.43;99846.44;4382675;32;20097;-91
2023/03/16 02:17:26;;;;;;;7.90;2.72;;;;;;;4.36;59.43;99846.38;4391280;32;20094;-93
2023/03/16 02:20:10;;;;;;;7.03;2.87;;;;;;;4.21;59.42;99847.31;4408513;32;20936;-92
2023/03/16 02:22:38;;;;;;;11.05;4.60;;;;;;;4.32;59.42;99853.28;4411213;32;20139;-91
2023/03/16 02:25:03;;;;;;;8.07;2.72;;;;;;;4.39;59.42;99851.53;4397903;32;20871;-91
2023/03/16 02:27:51;;;;;;;6.00;2.85;;;;;;;4.31;59.43;99861.88;4398032;32;20097;-92
2023/03/16 02:30:17;;;;;;;5.53;3.03;;;;;;;4.31;59.43;99854.16;4392642;32;20141;-93
2023/03/16 02:32:43;;;;;;;10.00;3.42;;;;;;;4.38;59.43;99860.12;4398665;32;20169;-92
2023/03/16 02:35:08;;;;;;;9.25;2.97;;;;;;;4.38;59.43;99855.81;4397859;32;20097;-92
2023/03/16 02:37:34;;;;;;;7.10;2.72;;;;;;;4.38;59.43;99854.97;4395428;32;20106;-91
2023/03/16 02:40:01;;;;;;;5.93;2.78;;;;;;;4.46;59.43;99864.34;4382191;32;20110;-91
2023/03/16 02:42:26;;;;;;;9.73;2.60;;;;;;;4.22;59.42;99865.34;4382949;32;20122;-91
2023/03/16 02:44:57;;;;;;;11.45;3.12;;;;;;;4.50;59.44;99870.38;4397596;32;20145;-91
2023/03/16 02:48:09;;;;;;;6.78;3.00;;;;;;;4.57;59.44;99872.03;4385284;32;20106;-92
2023/03/16 02:50:34;;;;;;;7.82;2.70;;;;;;;4.40;59.42;99873.84;4409016;32;20106;-89
2023/03/16 02:52:59;;;;;;;8.85;2.25;;;;;;;4.57;59.44;99878.06;4406691;32;20532;-91
2023/03/16 02:55:25;;;;;;;5.95;3.40;;;;;;;4.59;59.44;99881.47;4372997;32;20102;-92
2023/03/16 02:57:53;;;;;;;10.85;2.97;;;;;;;4.53;59.44;99885.81;4393968;32;20169;-90
2023/03/16 03:00:20;;;;;;;5.50;2.50;;;;;;;4.54;59.44;99888.38;4406354;32;20126;-91
2023/03/16 03:02:46;;;;;;;8.55;2.55;;;;;;;4.57;59.44;99890.09;4398619;32;20109;-91
2023/03/16 03:05:11;;;;;;;7.15;3.25;;;;;;;4.48;59.43;99901.28;4397817;32;20478;-89
2023/03/16 03:07:37;;;;;;;8.23;3.28;;;;;;;4.58;59.44;99900.38;4397493;32;20437;-90
2023/03/16 03:10:04;;;;;;;6.57;2.87;;;;;;;4.43;59.43;99904.75;4384056;32;20128;-90
2023/03/16 03:12:31;;;;;;;7.97;2.95;;;;;;;4.34;59.42;99908.25;4397949;32;20110;-90
2023/03/16 03:14:56;;;;;;;7.35;3.08;;;;;;;4.41;59.43;99919.38;4397065;32;20106;-91
2023/03/16 03:17:31;;;;;;;10.02;2.87;;;;;;;4.33;59.42;99924.56;4397545;32;20149;-88
2023/03/16 03:20:01;;;;;;;8.95;3.05;;;;;;;4.29;59.42;99917.72;4382627;32;20106;-90
2023/03/16 03:22:26;;;;;;;5.47;3.22;;;;;;;4.30;59.43;99928.03;4395659;32;20693;-91
2023/03/16 03:24:52;;;;;;;7.15;2.80;;;;;;;4.23;59.42;99928.88;4396704;32;20223;-91
2023/03/16 03:27:21;;;;;;;7.72;3.22;;;;;;;4.25;59.42;99928.88;4398636;32;20440;-89
2023/03/16 03:29:46;;;;;;;6.20;2.77;;;;;;;4.20;59.42;99931.47;4397792;32;20157;-91
2023/03/16 03:32:12;;;;;;;9.52;3.25;;;;;;;4.23;59.42;99938.34;4384644;32;20526;-91
2023/03/16 03:34:38;;;;;;;12.15;3.33;;;;;;;4.24;59.42;99930.59;4397085;32;20086;-93
2023/03/16 03:37:03;;;;;;;8.32;2.90;;;;;;;4.37;59.43;99935.72;4400162;32;20100;-93
2023/03/16 03:39:29;;;;;;;6.87;3.05;;;;;;;3.96;59.40;99944.41;4401623;32;20149;-92
2023/03/16 03:41:57;;;;;;;10.52;3.10;;;;;;;4.03;59.41;99945.28;4394606;32;20136;-92
2023/03/16 03:44:33;;;;;;;;;;;;;;;;;;;;;
2023/03/16 03:46:59;;;;;;;7.05;3.12;;;;;;;3.96;59.40;99950.44;4405110;32;35566;-95
2023/03/16 03:49:24;;;;;;;6.95;3.37;;;;;;;4.07;59.41;99947.00;4397451;32;20363;-92
2023/03/16 03:51:53;;;;;;;9.63;3.83;;;;;;;3.81;59.39;99953.06;4381862;32;20101;-91
2023/03/16 03:54:20;;;;;;;7.87;3.30;;;;;;;4.12;59.40;99951.25;4379941;32;20085;-94
2023/03/16 03:56:45;;;;;;;7.25;3.25;;;;;;;4.09;59.41;99951.28;4391503;32;20151;-93
2023/03/16 03:59:11;;;;;;;10.60;3.30;;;;;;;3.83;59.40;99955.63;4385300;32;20138;-94
2023/03/16 04:01:36;;;;;;;13.82;3.17;;;;;;;3.92;59.41;99958.16;4388700;32;20440;-96
2023/03/16 04:04:02;;;;;;;9.07;4.00;;;;;;;3.79;59.40;99956.50;4388433;32;20412;-95
2023/03/16 04:06:27;;;;;;;11.57;3.30;;;;;;;3.64;59.38;99959.94;4388242;32;20102;-96
2023/03/16 04:09:05;;;;;;;;;;;;;;;;;;;;;
2023/03/16 04:11:31;;;;;;;7.82;3.40;;;;;;;3.56;59.38;99969.38;4397230;32;35274;-92
2023/03/16 04:13:57;;;;;;;10.48;3.90;;;;;;;3.55;59.38;99967.62;4397011;32;20424;-91
2023/03/16 04:16:25;;;;;;;9.05;3.87;;;;;;;3.38;59.37;99970.22;4409334;32;20389;-91
2023/03/16 04:18:53;;;;;;;6.85;3.40;;;;;;;3.19;59.36;99974.50;4397534;32;20169;-89
2023/03/16 04:21:18;;;;;;;9.07;4.12;;;;;;;3.36;59.37;99970.22;4396998;32;20110;-88
2023/03/16 04:23:44;;;;;;;10.23;4.78;;;;;;;3.37;59.37;99976.22;4396798;32;20203;-90
2023/03/16 04:26:10;;;;;;;8.75;4.30;;;;;;;3.41;59.37;99975.38;4396498;32;20426;-90
2023/03/16 04:28:35;;;;;;;7.12;3.85;;;;;;;3.20;59.36;99983.91;4394514;32;20122;-90
2023/03/16 04:31:05;;;;;;;12.93;4.68;;;;;;;3.28;59.37;99984.78;4380544;32;20121;-90
2023/03/16 04:33:32;;;;;;;7.55;3.65;;;;;;;3.19;59.36;99987.34;4396901;32;20541;-91
2023/03/16 04:35:57;;;;;;;9.27;3.90;;;;;;;3.16;59.36;99991.63;4394346;32;20694;-90
2023/03/16 04:38:23;;;;;;;10.82;5.10;;;;;;;3.11;59.35;99994.19;4383516;32;20102;-91
2023/03/16 04:40:48;;;;;;;10.30;4.18;;;;;;;2.92;59.34;99995.00;4386633;32;20129;-90
2023/03/16 04:43:13;;;;;;;7.97;4.25;;;;;;;3.05;59.35;100001.88;4383377;32;20170;-90
2023/03/16 04:45:40;;;;;;;6.87;3.90;;;;;;;3.04;59.35;100000.16;4389226;32;20125;-90
2023/03/16 04:48:05;;;;;;;11.10;4.60;;;;;;;2.98;59.34;100003.59;4396078;32;20471;-90
2023/03/16 04:50:31;;;;;;;9.68;4.62;;;;;;;2.85;59.33;100004.44;4395963;32;20136;-90
2023/03/16 04:52:56;;;;;;;11.70;4.20;;;;;;;2.95;59.35;100010.44;4398503;32;20106;-91
2023/03/16 04:55:22;;;;;;;11.43;4.15;;;;;;;2.81;59.34;100012.94;4385946;32;20179;-88
2023/03/16 04:57:47;;;;;;;10.57;4.78;;;;;;;2.94;59.34;100016.44;4409045;32;20133;-90
2023/03/16 05:00:18;;;;;;;10.48;4.72;;;;;;;3.10;59.36;100018.22;4386669;32;20129;-92
2023/03/16 05:02:47;;;;;;;8.98;4.47;;;;;;;3.05;59.35;100022.47;4411189;32;20436;-94
2023/03/16 05:05:13;;;;;;;11.15;4.07;;;;;;;2.65;59.33;100021.47;4397155;32;20098;-94
2023/03/16 05:07:40;;;;;;;12.37;4.93;;;;;;;2.76;59.33;100030.94;4392435;32;20132;-94
2023/03/16 05:10:07;;;;;;;11.27;4.78;;;;;;;2.81;59.34;100033.53;4394607;32;20170;-94
2023/03/16 05:12:32;;;;;;;11.23;4.37;;;;;;;2.74;59.33;100037.78;4395393;32;20148;-91
2023/03/16 05:14:58;;;;;;;9.50;4.53;;;;;;;2.76;59.33;100038.66;4394010;32;20102;-91
2023/03/16 05:17:23;;;;;;;9.52;4.28;;;;;;;3.02;59.34;100045.59;4397034;32;20158;-92
2023/03/16 05:19:48;;;;;;;9.63;4.45;;;;;;;3.04;59.35;100046.44;4381311;32;20117;-91
2023/03/16 05:22:14;;;;;;;11.63;4.57;;;;;;;3.10;59.36;100046.50;4397059;32;20118;-93
2023/03/16 05:24:40;;;;;;;11.12;4.65;;;;;;;3.06;59.35;100043.03;4397166;32;20101;-92
2023/03/16 05:27:05;;;;;;;9.00;4.82;;;;;;;3.17;59.36;100044.78;4390982;32;20148;-93
2023/03/16 05:29:31;;;;;;;10.43;4.65;;;;;;;3.29;59.36;100043.09;4407091;32;20106;-94
2023/03/16 05:31:57;;;;;;;9.48;5.12;;;;;;;3.13;59.35;100043.94;4384997;32;20106;-94
2023/03/16 05:34:22;;;;;;;12.60;4.90;;;;;;;3.27;59.37;100042.22;4397584;32;20085;-92
2023/03/16 05:36:48;;;;;;;8.25;4.53;;;;;;;3.27;59.37;100041.38;4394984;32;20135;-94
2023/03/16 05:39:13;;;;;;;8.80;4.60;;;;;;;3.29;59.36;100043.09;4377400;32;20107;-93
2023/03/16 05:41:39;;;;;;;13.18;4.40;;;;;;;3.35;59.36;100043.13;4385066;32;20094;-93
2023/03/16 05:44:04;;;;;;;10.65;4.55;;;;;;;3.47;59.38;100036.25;4397763;32;20109;-93
2023/03/16 05:46:30;;;;;;;13.23;5.10;;;;;;;3.42;59.38;100045.69;4410407;32;20154;-93
2023/03/16 05:48:55;;;;;;;10.98;4.75;;;;;;;3.59;59.38;100056.88;4395642;32;20122;-94
2023/03/16 05:51:20;;;;;;;8.85;4.43;;;;;;;3.64;59.38;100048.31;4394615;32;20129;-93
2023/03/16 05:53:47;;;;;;;12.10;4.53;;;;;;;3.75;59.39;100060.31;4379822;32;20172;-95
2023/03/16 05:56:13;;;;;;;10.77;5.43;;;;;;;3.77;59.39;100059.44;4397172;32;20106;-91
2023/03/16 05:58:38;;;;;;;12.68;5.00;;;;;;;3.78;59.40;100058.59;4380867;32;20440;-92
2023/03/16 06:01:04;;;;;;;8.80;4.78;;;;;;;3.70;59.39;100057.75;4399411;32;20129;-92
2023/03/16 06:03:30;;;;;;;10.18;3.97;;;;;;;3.87;59.39;100063.75;4398103;32;20086;-94
2023/03/16 06:05:55;;;;;;;13.90;4.53;;;;;;;4.04;59.40;100065.47;4396742;32;20150;-91
2023/03/16 06:08:21;;;;;;;11.35;5.07;;;;;;;3.96;59.40;100074.06;4382827;32;20106;-93
2023/03/16 06:10:47;;;;;;;13.40;4.80;;;;;;;3.98;59.41;100079.19;4396373;32;20129;-93
2023/03/16 06:13:12;;;;;;;9.40;4.40;;;;;;;4.07;59.41;100083.50;4381575;32;20129;-94
2023/03/16 06:15:38;;;;;;;11.27;4.10;;;;;;;4.13;59.42;100076.62;4399738;32;20168;-94
2023/03/16 06:18:03;;;;;;;16.50;5.03;;;;;;;4.24;59.42;100089.50;4398510;32;20436;-93
2023/03/16 06:20:29;;;;;;;13.25;4.85;;;;;;;4.30;59.43;100092.09;4396549;32;20078;-95
2023/03/16 06:22:54;;;;;;;7.90;4.07;;;;;;;4.42;59.43;100088.63;4381546;32;20090;-92
2023/03/16 06:25:19;;;;;;;11.88;4.40;;;;;;;4.39;59.42;100101.50;4396563;32;20146;-94
2023/03/16 06:27:45;;;;;;;8.38;3.47;;;;;;;4.51;59.43;100104.09;4385283;32;20128;-94
2023/03/16 06:30:13;;;;;;;14.20;3.92;;;;;;;4.52;59.43;100100.63;4399278;32;20125;-94
2023/03/16 06:32:41;;;;;;;7.70;4.05;;;;;;;4.41;59.43;100102.34;4398877;32;20093;-93
2023/03/16 06:35:07;;;;;;;10.02;4.62;;;;;;;4.60;59.44;100106.62;4397244;32;20098;-93
2023/03/16 06:37:33;;;;;;;9.88;4.37;;;;;;;4.59;59.44;100104.91;4399900;32;20106;-94
2023/03/16 06:39:58;;;;;;;8.68;4.25;;;;;;;4.76;59.45;100102.31;4390275;32;20083;-94
2023/03/16 06:42:24;;;;;;;9.10;4.47;;;;;;;4.85;59.45;100108.28;4399321;32;20113;-93
2023/03/16 06:44:50;;;;;;;11.05;4.40;;;;;;;4.76;59.45;100107.47;4388661;32;20163;-93
2023/03/16 06:47:16;;;;;;;12.63;4.15;;;;;;;4.91;59.46;100120.28;4389173;32;20110;-95
2023/03/16 06:49:42;;;;;;;10.32;4.50;;;;;;;5.00;59.46;100122.84;4408684;32;20121;-93
2023/03/16 06:52:09;;;;;;;9.20;4.45;;;;;;;5.08;59.46;100125.41;4398540;32;20113;-94
2023/03/16 06:54:36;;;;;;;8.70;4.12;;;;;;;5.05;59.46;100126.28;4393420;32;20094;-93
2023/03/16 06:57:02;;;;;;;10.25;5.30;;;;;;;5.11;59.47;100131.41;4394381;32;20159;-95
2023/03/16 06:59:27;;;;;;;11.23;4.53;;;;;;;5.22;59.47;100128.78;4396062;32;20086;-96
2023/03/16 07:01:53;;;;;;;9.65;4.05;;;;;;;4.99;59.46;100133.19;4384418;32;20112;-95
2023/03/16 07:04:18;;;;;;;13.65;5.15;;;;;;;5.01;59.47;100137.47;4395508;32;20122;-94
2023/03/16 07:06:44;;;;;;;8.63;4.32;;;;;;;5.11;59.47;100139.16;4379545;32;20101;-94
2023/03/16 07:09:11;;;;;;;13.95;4.57;;;;;;;5.35;59.48;100142.50;4398738;32;20109;-93
2023/03/16 07:11:37;;;;;;;11.18;4.18;;;;;;;5.35;59.48;100139.91;4398751;32;20073;-94
2023/03/16 07:14:02;;;;;;;10.80;4.30;;;;;;;5.45;59.48;100149.34;4398664;32;20223;-94
2023/03/16 07:16:27;;;;;;;8.82;4.40;;;;;;;5.46;59.50;100151.06;4397355;32;20482;-93
2023/03/16 07:18:53;;;;;;;9.45;4.37;;;;;;;5.42;59.49;100155.34;4398519;32;20508;-93
2023/03/16 07:21:18;;;;;;;9.27;4.25;;;;;;;5.48;59.49;100149.31;4398759;32;20097;-94
2023/03/16 07:23:44;;;;;;;10.55;4.62;;;;;;;5.47;59.49;100160.53;4398519;32;20165;-94
2023/03/16 07:26:10;;;;;;;9.88;4.32;;;;;;;5.67;59.50;100171.56;4398404;32;20163;-96
2023/03/16 07:28:37;;;;;;;10.25;4.95;;;;;;;5.80;59.51;100167.22;4412007;32;20086;-95
2023/03/16 07:31:03;;;;;;;9.32;4.45;;;;;;;5.74;59.50;100177.59;4398957;32;20805;-94
2023/03/16 07:33:29;;;;;;;12.18;5.32;;;;;;;5.90;59.51;100178.38;4395552;32;20094;-93
2023/03/16 07:35:54;;;;;;;8.55;4.40;;;;;;;6.06;59.53;100178.28;4381252;32;20102;-95
2023/03/16 07:38:20;;;;;;;8.38;5.07;;;;;;;5.95;59.52;100180.09;4383105;32;20106;-93
2023/03/16 07:40:46;;;;;;;11.98;4.68;;;;;;;6.00;59.52;100183.50;4383393;32;20098;-94
2023/03/16 07:43:12;;;;;;;11.10;4.75;;;;;;;6.21;59.53;100173.88;4383234;32;20174;-94
2023/03/16 07:45:37;;;;;;;9.25;4.68;;;;;;;6.19;59.52;100176.47;4385765;32;20145;-95
2023/03/16 07:48:02;;;;;;;10.32;4.68;;;;;;;6.30;59.54;100172.06;4398187;32;20150;-93
2023/03/16 07:50:28;;;;;;;9.02;4.68;;;;;;;6.56;59.55;100177.00;4398440;32;20123;-93
2023/03/16 07:52:53;;;;;;;9.68;5.25;;;;;;;6.78;59.56;100180.25;4388118;32;20143;-94
2023/03/16 07:55:19;;;;;;;10.40;4.72;;;;;;;6.97;59.58;100183.53;4398445;32;20106;-96
2023/03/16 07:57:47;;;;;;;13.18;4.93;;;;;;;6.96;59.58;100177.50;4388156;32;20133;-94
2023/03/16 08:00:13;;;;;;;9.82;5.53;;;;;;;7.01;59.57;100178.28;4396428;32;20524;-93
2023/03/16 08:02:38;;;;;;;10.18;5.07;;;;;;;7.28;59.59;100181.44;4402876;32;20102;-95
2023/03/16 08:05:04;;;;;;;8.88;5.32;;;;;;;7.39;59.60;100188.22;4379937;32;20536;-95
2023/03/16 08:07:30;;;;;;;10.63;4.70;;;;;;;7.35;59.59;100178.78;4398397;32;20433;-95
2023/03/16 08:09:56;;;;;;;8.60;4.62;;;;;;;7.18;59.59;100179.84;4398129;32;20082;-93
2023/03/16 08:12:22;;;;;;;11.90;4.60;;;;;;;7.32;59.60;100181.38;4398308;32;20156;-95
2023/03/16 08:14:47;;;;;;;8.57;3.95;;;;;;;7.43;59.61;100180.41;4398454;32;20185;-95
2023/03/16 08:17:13;;;;;;;11.68;4.97;;;;;;;7.35;59.60;100183.09;4398381;32;20113;-96
2023/03/16 08:19:39;;;;;;;11.38;5.12;;;;;;;7.44;59.60;100185.56;4398426;32;20115;-96
2023/03/16 08:22:04;;;;;;;8.88;4.40;;;;;;;7.55;59.61;100186.28;4398191;32;20106;-95
2023/03/16 08:24:30;;;;;;;7.72;4.35;;;;;;;7.30;59.59;100203.00;4398394;32;20117;-95
2023/03/16 08:26:56;;;;;;;9.20;5.15;;;;;;;7.13;59.59;100199.75;4410951;32;20120;-96
2023/03/16 08:29:22;;;;;;;11.90;5.47;;;;;;;7.32;59.60;100211.59;4398204;32;20097;-95
2023/03/16 08:31:48;;;;;;;8.38;4.50;;;;;;;7.37;59.60;100196.91;4398775;32;20128;-95
2023/03/16 08:34:14;;;;;;;11.23;4.50;;;;;;;7.27;59.59;100195.28;4398290;32;20153;-96
2023/03/16 08:36:42;;;;;;;11.30;4.53;;;;;;;7.48;59.61;100194.16;4395793;32;20058;-95
2023/03/16 08:39:08;;;;;;;10.88;4.72;;;;;;;7.58;59.60;100207.00;4393261;32;20754;-96
2023/03/16 08:41:33;;;;;;;12.00;4.45;;;;;;;7.60;59.61;100196.63;4410468;32;20106;-95
2023/03/16 08:43:59;;;;;;;9.00;3.72;;;;;;;7.63;59.61;100200.00;4397970;32;20146;-94
2023/03/16 08:46:25;;;;;;;6.72;3.83;;;;;;;7.84;59.63;100183.34;4393467;32;20144;-95
2023/03/16 08:48:51;;;;;;;10.88;4.50;;;;;;;8.00;59.64;100187.41;4380583;32;20125;-96
2023/03/16 08:51:18;;;;;;;9.48;4.30;;;;;;;8.29;59.65;100181.78;4383457;32;20262;-96
2023/03/16 08:53:44;;;;;;;10.55;4.68;;;;;;;8.58;59.66;100189.13;4382978;32;20133;-96
2023/03/16 08:56:11;;;;;;;9.98;4.53;;;;;;;8.67;59.67;100193.28;4387716;32;20094;-94
2023/03/16 08:58:37;;;;;;;7.45;3.90;;;;;;;8.85;59.68;100187.78;4397651;32;20098;-95
2023/03/16 09:01:04;;;;;;;11.73;4.25;;;;;;;8.98;59.69;100191.00;4410781;32;20114;-95
2023/03/16 09:03:31;;;;;;;8.57;3.78;;;;;;;8.98;59.69;100182.34;4396319;32;20102;-95
2023/03/16 09:06:04;;;;;;;9.70;3.53;;;;;;;8.98;59.69;100184.94;4398693;32;20120;-95
2023/03/16 09:08:30;;;;;;;6.28;2.83;;;;;;;8.81;59.67;100186.13;4388629;32;20110;-96
2023/03/16 09:11:02;;;;;;;8.65;2.80;;;;;;;9.19;59.71;100185.41;4398946;32;20105;-96
2023/03/16 09:13:28;;;;;;;7.15;3.30;;;;;;;9.27;59.71;100185.28;4385786;32;20189;-95
2023/03/16 09:15:54;;;;;;;6.40;3.35;;;;;;;9.38;59.71;100188.50;4395367;32;20137;-96
2023/03/16 09:18:20;;;;;;;6.80;3.22;;;;;;;9.39;59.71;100186.75;4382543;32;20135;-95
2023/03/16 09:20:46;;;;;;;6.90;3.15;;;;;;;9.70;59.72;100187.84;4385694;32;20093;-96
2023/03/16 09:23:13;;;;;;;7.37;2.92;;;;;;;9.74;59.74;100192.09;4391251;32;20127;-96
2023/03/16 09:25:38;;;;;;;6.90;2.72;;;;;;;9.57;59.71;100188.12;4412666;32;20094;-96
2023/03/16 09:28:04;;;;;;;8.43;3.67;;;;;;;9.48;59.72;100202.19;4382683;32;20148;-96
2023/03/16 09:30:30;;;;;;;4.20;2.30;;;;;;;9.54;59.72;100191.66;4386460;32;20105;-94
2023/03/16 09:32:55;;;;;;;5.78;2.35;;;;;;;9.61;59.72;100188.03;4399621;32;20387;-95
2023/03/16 09:35:21;;;;;;;4.60;2.53;;;;;;;9.69;59.72;100201.72;4400160;32;20155;-96
2023/03/16 09:37:46;;;;;;;6.90;2.40;;;;;;;9.86;59.73;100203.94;4400160;32;20415;-96
2023/03/16 09:40:27;;;;;;;8.30;2.33;;;;;;;9.87;59.74;100203.06;4390787;32;20110;-96
2023/03/16 09:43:25;;;;;;;9.07;3.15;;;;;;;9.96;59.74;100202.87;4397357;32;20082;-96
2023/03/16 09:46:16;;;;;;;7.07;3.15;;;;;;;10.20;59.76;100198.00;4408573;32;20106;-96
2023/03/16 09:48:41;;;;;;;6.93;2.70;;;;;;;10.29;59.76;100203.03;4412374;32;20092;-96
2023/03/16 09:51:31;;;;;;;7.93;2.83;;;;;;;10.49;59.77;100194.75;4399489;32;20137;-96
2023/03/16 09:53:58;;;;;;;6.75;2.67;;;;;;;10.61;59.77;100202.22;4401793;32;20113;-96
2023/03/16 09:56:30;;;;;;;6.72;2.50;;;;;;;10.52;59.77;100200.72;4399379;32;20116;-96
2023/03/16 09:58:56;;;;;;;6.12;3.08;;;;;;;10.57;59.78;100198.84;4399482;32;20109;-95
2023/03/16 10:01:41;;;;;;;6.32;2.53;;;;;;;10.70;59.79;100204.62;4396936;32;20121;-96
2023/03/16 10:04:40;;;;;;;4.90;2.03;;;;;;;10.52;59.77;100215.47;4398062;32;20110;-95
2023/03/16 10:07:08;;;;;;;4.87;2.30;;;;;;;10.56;59.78;100201.50;4414297;32;20082;-96
2023/03/16 10:09:56;;;;;;;5.60;2.35;;;;;;;10.79;59.79;100208.72;4396754;32;20474;-96
2023/03/16 10:12:25;;;;;;;4.35;2.28;;;;;;;10.95;59.80;100197.03;4396688;32;20171;-96
2023/03/16 10:14:58;;;;;;;4.93;2.75;;;;;;;11.25;59.82;100206.63;4395408;32;20820;-96
2023/03/16 10:17:52;;;;;;;7.07;3.97;;;;;;;11.29;59.81;100203.03;4396819;32;20115;-96
2023/03/16 10:20:20;;;;;;;6.12;2.95;;;;;;;11.31;59.82;100209.03;4401539;32;20112;-95
2023/03/16 10:22:46;;;;;;;11.23;3.67;;;;;;;11.08;59.81;100204.47;4386593;32;20152;-94
2023/03/16 10:25:33;;;;;;;5.47;3.17;;;;;;;10.89;59.79;100200.66;4399137;32;20078;-96
2023/03/16 10:27:58;;;;;;;9.27;3.60;;;;;;;10.92;59.79;100215.34;4412169;32;20086;-96
2023/03/16 10:30:28;;;;;;;5.53;3.30;;;;;;;10.83;59.79;100215.56;4399181;32;20133;-96
2023/03/16 10:32:54;;;;;;;6.12;2.65;;;;;;;10.86;59.79;100212.88;4411601;32;20152;-96
2023/03/16 10:35:40;;;;;;;10.02;3.30;;;;;;;10.63;59.78;100211.72;4399795;32;20829;-96
2023/03/16 10:38:37;;;;;;;5.37;2.53;;;;;;;10.53;59.77;100204.19;4390330;32;20119;-96
2023/03/16 10:41:05;;;;;;;8.43;2.85;;;;;;;10.67;59.78;100215.97;4400662;32;20119;-95
2023/03/16 10:43:31;;;;;;;7.28;2.90;;;;;;;11.05;59.80;100199.34;4401825;32;20070;-95
2023/03/16 10:46:02;;;;;;;4.97;2.53;;;;;;;11.24;59.82;100202.31;4408135;32;20533;-95
2023/03/16 10:48:32;;;;;;;6.78;2.70;;;;;;;11.32;59.82;100199.47;4399312;32;20094;-95
2023/03/16 10:51:06;;;;;;;8.57;3.00;;;;;;;11.24;59.82;100199.69;4396826;32;20070;-96
2023/03/16 10:53:34;;;;;;;6.25;2.47;;;;;;;11.42;59.83;100200.09;4390009;32;20125;-95
2023/03/16 10:56:01;;;;;;;4.37;2.17;;;;;;;11.40;59.83;100202.75;4386386;32;20109;-95
2023/03/16 10:58:32;;;;;;;5.37;2.22;;;;;;;11.61;59.84;100196.91;4396623;32;20110;-96
2023/03/16 11:00:58;;;;;;;5.70;2.30;;;;;;;11.93;59.85;100188.16;4384247;32;20474;-96
2023/03/16 11:03:27;;;;;;;4.47;2.20;;;;;;;11.91;59.86;100192.56;4386880;32;20136;-96
2023/03/16 11:06:19;;;;;;;5.15;2.42;;;;;;;11.86;59.85;100194.47;4396968;32;20098;-96
2023/03/16 11:08:46;;;;;;;5.00;2.00;;;;;;;11.74;59.84;100191.31;4386912;32;20866;-96
2023/03/16 11:11:31;;;;;;;4.57;2.42;;;;;;;11.91;59.86;100192.56;4386912;32;20110;-96
2023/03/16 11:13:58;;;;;;;5.03;2.40;;;;;;;12.20;59.86;100188.19;4389504;32;20132;-95
2023/03/16 11:16:45;;;;;;;4.30;2.22;;;;;;;12.08;59.86;100186.00;4398740;32;20106;-96
2023/03/16 11:19:33;;;;;;;5.18;2.37;;;;;;;12.29;59.88;100177.47;4411335;32;20514;-95
2023/03/16 11:22:10;;;;;;;9.43;2.28;;;;;;;12.52;59.89;100185.41;4389447;32;20102;-95
2023/03/16 11:24:49;;;;;;;3.30;1.70;;;;;;;12.35;59.87;100179.03;4385772;32;20842;-95
2023/03/16 11:27:28;;;;;;;5.30;2.10;;;;;;;12.25;59.86;100173.25;4405322;32;20133;-95
2023/03/16 11:30:32;;;;;;;3.55;1.98;;;;;;;12.39;59.88;100176.28;4405250;32;20113;-95
2023/03/16 11:32:59;;;;;;;5.53;2.20;;;;;;;12.25;59.87;100170.62;4414466;32;20103;-96
2023/03/16 11:35:43;;;;;;;4.70;1.70;;;;;;;12.69;59.90;100169.16;4404365;32;20090;-96
2023/03/16 11:38:42;;;;;;;4.65;1.77;;;;;;;12.62;59.90;100159.84;4429081;32;20815;-96
2023/03/16 11:41:15;;;;;;;4.62;1.90;;;;;;;12.70;59.89;100164.78;4416714;32;20083;-96
2023/03/16 11:43:49;;;;;;;4.82;1.80;;;;;;;12.54;59.89;100162.72;4404431;32;20120;-96